createdAt,value
2018-02-18T00:00:36.246Z,19.33
2018-02-18T00:01:45.453Z,19.37
2018-02-18T00:02:54.465Z,19.28
2018-02-18T00:04:03.418Z,19.31
2018-02-18T00:05:12.370Z,19.28
2018-02-18T00:06:21.581Z,19.33
2018-02-18T00:07:30.908Z,19.31
2018-02-18T00:08:40.338Z,19.25
2018-02-18T00:09:49.814Z,19.37
2018-02-18T00:10:59.030Z,19.28
2018-02-18T00:12:08.517Z,19.37
2018-02-18T00:13:18.261Z,19.29
2018-02-18T00:14:27.467Z,19.33
2018-02-18T00:15:37.209Z,19.33
2018-02-18T00:16:46.700Z,19.25
2018-02-18T00:17:55.639Z,19.36
2018-02-18T00:19:04.583Z,19.32
2018-02-18T00:20:13.520Z,19.29
2018-02-18T00:21:22.464Z,19.31
2018-02-18T00:22:31.935Z,19.33
2018-02-18T00:23:40.884Z,19.36
2018-02-18T00:24:50.089Z,19.33
2018-02-18T00:25:59.032Z,19.33
2018-02-18T00:27:08.241Z,19.28
2018-02-18T00:28:17.451Z,19.36
2018-02-18T00:29:26.923Z,19.32
2018-02-18T00:30:36.136Z,19.29
2018-02-18T00:31:45.351Z,19.29
2018-02-18T00:32:54.569Z,19.31
2018-02-18T00:34:03.243Z,19.26
2018-02-18T00:35:12.193Z,19.29
2018-02-18T00:36:21.449Z,19.31
2018-02-18T00:37:30.665Z,19.25
2018-02-18T00:38:39.877Z,19.29
2018-02-18T00:39:49.362Z,19.33
2018-02-18T00:40:58.574Z,19.32
2018-02-18T00:42:07.515Z,19.32
2018-02-18T00:43:16.461Z,19.26
2018-02-18T00:44:26.058Z,19.28
2018-02-18T00:45:35.266Z,19.32
2018-02-18T00:46:44.479Z,19.32
2018-02-18T00:47:53.693Z,19.25
2018-02-18T00:49:02.634Z,19.26
2018-02-18T00:50:12.130Z,19.26
2018-02-18T00:51:20.802Z,19.26
2018-02-18T00:52:29.476Z,19.26
2018-02-18T00:53:38.690Z,19.25
2018-02-18T00:54:47.634Z,19.25
2018-02-18T00:55:56.840Z,19.28
2018-02-18T00:57:05.782Z,19.29
2018-02-18T00:58:14.512Z,19.32
2018-02-18T00:59:23.453Z,19.28
2018-02-18T01:00:32.933Z,19.29
2018-02-18T01:01:41.879Z,19.32
2018-02-18T01:02:51.356Z,19.29
2018-02-18T01:04:01.362Z,19.26
2018-02-18T01:05:10.574Z,19.25
2018-02-18T01:06:19.789Z,19.28
2018-02-18T01:07:28.741Z,19.28
2018-02-18T01:08:37.949Z,19.28
2018-02-18T01:09:47.156Z,19.22
2018-02-18T01:10:56.641Z,19.23
2018-02-18T01:12:05.582Z,19.31
2018-02-18T01:13:15.321Z,19.28
2018-02-18T01:14:24.265Z,19.26
2018-02-18T01:15:33.738Z,19.29
2018-02-18T01:16:43.259Z,19.21
2018-02-18T01:17:52.198Z,19.29
2018-02-18T01:19:00.876Z,19.28
2018-02-18T01:20:09.816Z,19.29
2018-02-18T01:21:18.493Z,19.28
2018-02-18T01:22:27.437Z,19.21
2018-02-18T01:23:36.119Z,19.25
2018-02-18T01:24:44.792Z,19.21
2018-02-18T01:25:53.740Z,19.26
2018-02-18T01:27:03.222Z,19.26
2018-02-18T01:28:12.429Z,19.29
2018-02-18T01:29:21.368Z,19.22
2018-02-18T01:30:30.849Z,19.18
2018-02-18T01:31:39.524Z,19.21
2018-02-18T01:32:49.273Z,19.21
2018-02-18T01:33:57.950Z,19.22
2018-02-18T01:35:07.171Z,19.13
2018-02-18T01:36:16.378Z,19.16
2018-02-18T01:37:25.055Z,19.21
2018-02-18T01:38:34.266Z,19.26
2018-02-18T01:39:43.478Z,19.22
2018-02-18T01:40:52.416Z,19.29
2018-02-18T01:42:01.358Z,19.23
2018-02-18T01:43:10.573Z,19.26
2018-02-18T01:44:20.327Z,19.28
2018-02-18T01:45:29.279Z,19.25
2018-02-18T01:46:38.494Z,19.25
2018-02-18T01:47:47.439Z,19.16
2018-02-18T01:48:56.650Z,19.14
2018-02-18T01:50:05.594Z,19.16
2018-02-18T01:51:14.540Z,19.14
2018-02-18T01:52:24.024Z,19.25
2018-02-18T01:53:33.232Z,19.22
2018-02-18T01:54:42.442Z,19.16
2018-02-18T01:55:51.122Z,19.22
2018-02-18T01:57:00.605Z,19.21
2018-02-18T01:58:09.819Z,19.13
2018-02-18T01:59:18.496Z,19.16
2018-02-18T02:00:28.235Z,19.19
2018-02-18T02:01:37.179Z,19.22
2018-02-18T02:02:46.404Z,19.16
2018-02-18T02:03:55.342Z,19.16
2018-02-18T02:05:04.289Z,19.21
2018-02-18T02:06:13.770Z,19.1
2018-02-18T02:07:23.513Z,19.22
2018-02-18T02:08:32.993Z,19.1
2018-02-18T02:09:42.209Z,19.08
2018-02-18T02:10:51.686Z,19.16
2018-02-18T02:12:00.628Z,19.18
2018-02-18T02:13:09.575Z,19.18
2018-02-18T02:14:18.525Z,19.16
2018-02-18T02:15:27.478Z,19.16
2018-02-18T02:16:37.237Z,19.18
2018-02-18T02:17:46.450Z,19.18
2018-02-18T02:18:55.930Z,19.18
2018-02-18T02:20:05.145Z,19.25
2018-02-18T02:21:14.092Z,19.16
2018-02-18T02:22:23.839Z,19.18
2018-02-18T02:23:33.047Z,19.16
2018-02-18T02:24:42.004Z,19.11
2018-02-18T02:25:50.950Z,19.16
2018-02-18T02:26:59.891Z,19.14
2018-02-18T02:28:09.365Z,19.18
2018-02-18T02:29:18.043Z,19.21
2018-02-18T02:30:27.524Z,19.11
2018-02-18T02:31:36.742Z,19.18
2018-02-18T02:32:45.959Z,19.18
2018-02-18T02:33:55.718Z,19.1
2018-02-18T02:35:05.208Z,19.14
2018-02-18T02:36:14.693Z,19.06
2018-02-18T02:37:24.180Z,19.14
2018-02-18T02:38:33.655Z,19.08
2018-02-18T02:39:42.864Z,19.06
2018-02-18T02:40:52.355Z,19.13
2018-02-18T02:42:01.829Z,19.06
2018-02-18T02:43:11.312Z,19.13
2018-02-18T02:44:20.794Z,19.08
2018-02-18T02:45:30.287Z,19.18
2018-02-18T02:46:40.044Z,19.07
2018-02-18T02:47:49.254Z,19.13
2018-02-18T02:48:58.466Z,19.02
2018-02-18T02:50:07.415Z,19.1
2018-02-18T02:51:16.644Z,19.19
2018-02-18T02:52:25.859Z,19.1
2018-02-18T02:53:35.365Z,19.02
2018-02-18T02:54:45.130Z,19.1
2018-02-18T02:55:54.393Z,18.99
2018-02-18T02:57:04.138Z,19.06
2018-02-18T02:58:13.092Z,19.06
2018-02-18T02:59:22.035Z,19.14
2018-02-18T03:00:31.250Z,19.08
2018-02-18T03:01:40.735Z,19.19
2018-02-18T03:02:49.951Z,19.16
2018-02-18T03:03:58.898Z,19.1
2018-02-18T03:05:07.845Z,19.04
2018-02-18T03:06:17.058Z,19.04
2018-02-18T03:07:25.736Z,19.04
2018-02-18T03:08:34.413Z,19.07
2018-02-18T03:09:43.358Z,18.99
2018-02-18T03:10:52.566Z,18.98
2018-02-18T03:12:02.047Z,19.04
2018-02-18T03:13:11.530Z,19.07
2018-02-18T03:14:20.474Z,19.06
2018-02-18T03:15:29.685Z,19.04
2018-02-18T03:16:38.894Z,19.06
2018-02-18T03:17:48.640Z,19.02
2018-02-18T03:18:58.114Z,19
2018-02-18T03:20:07.326Z,18.99
2018-02-18T03:21:16.269Z,19
2018-02-18T03:22:25.213Z,19.04
2018-02-18T03:23:34.690Z,19.06
2018-02-18T03:24:43.902Z,19.06
2018-02-18T03:25:52.844Z,18.95
2018-02-18T03:27:02.602Z,19.02
2018-02-18T03:28:11.866Z,19.04
2018-02-18T03:29:21.343Z,18.99
2018-02-18T03:30:30.284Z,19
2018-02-18T03:31:40.037Z,19.04
2018-02-18T03:32:49.254Z,18.92
2018-02-18T03:33:58.198Z,18.99
2018-02-18T03:35:07.143Z,19
2018-02-18T03:36:15.821Z,18.95
2018-02-18T03:37:25.034Z,19.04
2018-02-18T03:38:34.252Z,18.91
2018-02-18T03:39:42.922Z,19.02
2018-02-18T03:40:51.861Z,19
2018-02-18T03:42:00.814Z,19
2018-02-18T03:43:10.568Z,19.06
2018-02-18T03:44:20.041Z,18.92
2018-02-18T03:45:28.984Z,18.98
2018-02-18T03:46:38.192Z,18.91
2018-02-18T03:47:47.137Z,18.94
2018-02-18T03:48:55.815Z,18.92
2018-02-18T03:50:04.767Z,18.94
2018-02-18T03:51:13.445Z,18.99
2018-02-18T03:52:22.931Z,19.02
2018-02-18T03:53:31.613Z,18.95
2018-02-18T03:54:40.567Z,19
2018-02-18T03:55:50.059Z,18.99
2018-02-18T03:56:59.280Z,19
2018-02-18T03:58:08.504Z,18.94
2018-02-18T03:59:17.465Z,18.91
2018-02-18T04:00:26.149Z,18.99
2018-02-18T04:01:35.642Z,19.04
2018-02-18T04:02:45.140Z,18.9
2018-02-18T04:03:54.096Z,18.94
2018-02-18T04:05:03.854Z,18.91
2018-02-18T04:06:12.542Z,18.98
2018-02-18T04:07:21.764Z,18.91
2018-02-18T04:08:30.715Z,18.98
2018-02-18T04:09:39.936Z,18.91
2018-02-18T04:10:49.159Z,18.91
2018-02-18T04:11:58.648Z,18.98
2018-02-18T04:13:08.678Z,18.92
2018-02-18T04:14:17.910Z,18.95
2018-02-18T04:15:26.595Z,18.95
2018-02-18T04:16:35.832Z,18.95
2018-02-18T04:17:45.322Z,18.94
2018-02-18T04:18:54.816Z,18.91
2018-02-18T04:20:04.301Z,18.92
2018-02-18T04:21:13.259Z,18.91
2018-02-18T04:22:22.483Z,18.91
2018-02-18T04:23:31.714Z,18.92
2018-02-18T04:24:41.199Z,18.92
2018-02-18T04:25:50.694Z,18.95
2018-02-18T04:26:59.646Z,18.94
2018-02-18T04:28:09.402Z,18.94
2018-02-18T04:29:18.887Z,18.95
2018-02-18T04:30:28.105Z,18.9
2018-02-18T04:31:37.063Z,18.92
2018-02-18T04:32:46.857Z,18.91
2018-02-18T04:33:56.309Z,18.91
2018-02-18T04:35:05.262Z,18.9
2018-02-18T04:36:14.485Z,18.9
2018-02-18T04:37:23.977Z,18.92
2018-02-18T04:38:33.466Z,18.87
2018-02-18T04:39:42.682Z,18.99
2018-02-18T04:40:51.644Z,18.9
2018-02-18T04:42:00.329Z,18.9
2018-02-18T04:43:09.284Z,18.92
2018-02-18T04:44:18.775Z,18.88
2018-02-18T04:45:28.267Z,18.91
2018-02-18T04:46:37.488Z,18.87
2018-02-18T04:47:46.707Z,18.95
2018-02-18T04:48:56.198Z,18.88
2018-02-18T04:50:05.687Z,18.87
2018-02-18T04:51:14.641Z,18.81
2018-02-18T04:52:24.138Z,18.85
2018-02-18T04:53:33.363Z,18.9
2018-02-18T04:54:42.590Z,18.88
2018-02-18T04:55:52.073Z,18.85
2018-02-18T04:57:00.770Z,18.92
2018-02-18T04:58:09.734Z,18.81
2018-02-18T04:59:18.957Z,18.85
2018-02-18T05:00:28.458Z,18.9
2018-02-18T05:01:37.412Z,18.76
2018-02-18T05:02:46.637Z,18.87
2018-02-18T05:03:55.863Z,18.82
2018-02-18T05:05:04.816Z,18.81
2018-02-18T05:06:14.035Z,18.87
2018-02-18T05:07:23.266Z,18.82
2018-02-18T05:08:31.955Z,18.82
2018-02-18T05:09:40.638Z,18.82
2018-02-18T05:10:49.858Z,18.85
2018-02-18T05:11:59.080Z,18.87
2018-02-18T05:13:08.031Z,18.88
2018-02-18T05:14:17.254Z,18.84
2018-02-18T05:15:26.206Z,18.82
2018-02-18T05:16:34.894Z,18.87
2018-02-18T05:17:43.580Z,18.81
2018-02-18T05:18:53.076Z,18.85
2018-02-18T05:20:02.572Z,18.81
2018-02-18T05:21:11.800Z,18.75
2018-02-18T05:22:21.027Z,18.81
2018-02-18T05:23:30.000Z,18.76
2018-02-18T05:24:39.229Z,18.85
2018-02-18T05:25:48.186Z,18.78
2018-02-18T05:26:56.872Z,18.8
2018-02-18T05:28:06.101Z,18.82
2018-02-18T05:29:15.587Z,18.85
2018-02-18T05:30:24.550Z,18.85
2018-02-18T05:31:33.507Z,18.81
2018-02-18T05:32:43.020Z,18.8
2018-02-18T05:33:51.705Z,18.81
2018-02-18T05:35:00.392Z,18.84
2018-02-18T05:36:09.081Z,18.88
2018-02-18T05:37:18.301Z,18.81
2018-02-18T05:38:27.527Z,18.75
2018-02-18T05:39:37.017Z,18.75
2018-02-18T05:40:46.240Z,18.7
2018-02-18T05:41:55.196Z,18.73
2018-02-18T05:43:04.696Z,18.87
2018-02-18T05:44:13.644Z,18.84
2018-02-18T05:45:22.331Z,18.87
2018-02-18T05:46:31.558Z,18.81
2018-02-18T05:47:40.513Z,18.72
2018-02-18T05:48:49.467Z,18.85
2018-02-18T05:49:58.151Z,18.87
2018-02-18T05:51:07.643Z,18.73
2018-02-18T05:52:16.868Z,18.82
2018-02-18T05:53:25.822Z,18.88
2018-02-18T05:54:35.314Z,18.76
2018-02-18T05:55:44.804Z,18.87
2018-02-18T05:56:54.297Z,18.84
2018-02-18T05:58:03.252Z,18.87
2018-02-18T05:59:12.795Z,18.82
2018-02-18T06:00:22.015Z,18.88
2018-02-18T06:01:30.703Z,18.82
2018-02-18T06:02:39.929Z,18.82
2018-02-18T06:03:48.614Z,18.75
2018-02-18T06:04:57.838Z,18.75
2018-02-18T06:06:06.796Z,18.84
2018-02-18T06:07:16.068Z,18.85
2018-02-18T06:08:25.290Z,18.87
2018-02-18T06:09:34.514Z,18.88
2018-02-18T06:10:44.010Z,18.88
2018-02-18T06:11:53.777Z,18.72
2018-02-18T06:13:02.734Z,18.88
2018-02-18T06:14:11.420Z,18.75
2018-02-18T06:15:20.381Z,18.87
2018-02-18T06:16:30.139Z,18.85
2018-02-18T06:17:39.896Z,18.82
2018-02-18T06:18:49.384Z,18.88
2018-02-18T06:19:58.339Z,18.85
2018-02-18T06:21:07.305Z,18.82
2018-02-18T06:22:15.990Z,18.88
2018-02-18T06:23:25.472Z,18.82
2018-02-18T06:24:34.423Z,18.82
2018-02-18T06:25:44.180Z,18.9
2018-02-18T06:26:53.676Z,18.84
2018-02-18T06:28:02.632Z,18.87
2018-02-18T06:29:11.856Z,18.82
2018-02-18T06:30:21.089Z,18.87
2018-02-18T06:31:30.320Z,18.82
2018-02-18T06:32:39.814Z,18.87
2018-02-18T06:33:49.037Z,18.87
2018-02-18T06:34:58.528Z,18.81
2018-02-18T06:36:07.809Z,18.88
2018-02-18T06:37:17.312Z,18.85
2018-02-18T06:38:26.538Z,18.78
2018-02-18T06:39:35.488Z,18.88
2018-02-18T06:40:44.711Z,18.76
2018-02-18T06:41:54.467Z,18.78
2018-02-18T06:43:03.424Z,18.81
2018-02-18T06:44:12.644Z,18.75
2018-02-18T06:45:22.138Z,18.87
2018-02-18T06:46:31.362Z,18.8
2018-02-18T06:47:40.858Z,18.8
2018-02-18T06:48:49.544Z,18.84
2018-02-18T06:49:58.767Z,18.85
2018-02-18T06:51:07.990Z,18.75
2018-02-18T06:52:17.480Z,18.8
2018-02-18T06:53:26.439Z,18.84
2018-02-18T06:54:35.661Z,18.78
2018-02-18T06:55:45.149Z,18.85
2018-02-18T06:56:54.704Z,18.85
2018-02-18T06:58:03.392Z,18.87
2018-02-18T06:59:12.614Z,18.84
2018-02-18T07:00:21.566Z,18.8
2018-02-18T07:01:30.255Z,18.78
2018-02-18T07:02:38.937Z,18.8
2018-02-18T07:03:47.625Z,18.8
2018-02-18T07:04:56.852Z,18.8
2018-02-18T07:06:06.072Z,18.75
2018-02-18T07:07:15.020Z,18.76
2018-02-18T07:08:24.244Z,18.78
2018-02-18T07:09:33.467Z,18.81
2018-02-18T07:10:42.961Z,18.8
2018-02-18T07:11:52.188Z,18.78
2018-02-18T07:13:00.872Z,18.78
2018-02-18T07:14:10.092Z,18.84
2018-02-18T07:15:19.582Z,18.85
2018-02-18T07:16:28.805Z,18.82
2018-02-18T07:17:37.793Z,18.88
2018-02-18T07:18:47.075Z,18.85
2018-02-18T07:19:56.029Z,18.75
2018-02-18T07:21:05.253Z,18.75
2018-02-18T07:22:14.479Z,18.9
2018-02-18T07:23:23.699Z,18.88
2018-02-18T07:24:33.193Z,18.85
2018-02-18T07:25:42.415Z,18.87
2018-02-18T07:26:51.639Z,18.84
2018-02-18T07:28:00.592Z,18.8
2018-02-18T07:29:09.282Z,18.8
2018-02-18T07:30:18.240Z,18.91
2018-02-18T07:31:27.735Z,18.92
2018-02-18T07:32:36.689Z,18.91
2018-02-18T07:33:45.643Z,18.94
2018-02-18T07:34:54.598Z,18.87
2018-02-18T07:36:04.354Z,18.94
2018-02-18T07:37:13.311Z,18.92
2018-02-18T07:38:22.304Z,18.91
2018-02-18T07:39:31.264Z,18.92
2018-02-18T07:40:40.489Z,18.92
2018-02-18T07:41:49.172Z,18.9
2018-02-18T07:42:58.186Z,18.92
2018-02-18T07:44:08.292Z,18.92
2018-02-18T07:45:17.250Z,18.92
2018-02-18T07:46:26.478Z,18.91
2018-02-18T07:47:35.434Z,18.94
2018-02-18T07:48:44.666Z,18.91
2018-02-18T07:49:53.624Z,18.9
2018-02-18T07:51:02.846Z,18.94
2018-02-18T07:52:12.122Z,18.94
2018-02-18T07:53:21.346Z,18.99
2018-02-18T07:54:30.570Z,18.99
2018-02-18T07:55:40.066Z,18.94
2018-02-18T07:56:49.288Z,18.88
2018-02-18T07:57:57.972Z,18.99
2018-02-18T07:59:06.928Z,18.95
2018-02-18T08:00:16.418Z,18.92
2018-02-18T08:01:25.641Z,19
2018-02-18T08:02:34.868Z,18.95
2018-02-18T08:03:44.906Z,18.92
2018-02-18T08:04:54.129Z,18.9
2018-02-18T08:06:02.815Z,18.94
2018-02-18T08:07:11.767Z,18.94
2018-02-18T08:08:20.724Z,18.92
2018-02-18T08:09:29.942Z,18.91
2018-02-18T08:10:39.432Z,18.9
2018-02-18T08:11:48.919Z,18.98
2018-02-18T08:12:58.706Z,18.92
2018-02-18T08:14:07.666Z,18.94
2018-02-18T08:15:16.624Z,18.91
2018-02-18T08:16:25.851Z,19
2018-02-18T08:17:35.085Z,18.99
2018-02-18T08:18:44.582Z,18.99
2018-02-18T08:19:53.559Z,18.95
2018-02-18T08:21:03.049Z,18.94
2018-02-18T08:22:12.272Z,18.95
2018-02-18T08:23:21.762Z,18.95
2018-02-18T08:24:30.720Z,18.92
2018-02-18T08:25:39.676Z,18.92
2018-02-18T08:26:49.179Z,19.04
2018-02-18T08:27:57.859Z,18.98
2018-02-18T08:29:06.813Z,18.99
2018-02-18T08:30:16.373Z,19.04
2018-02-18T08:31:25.329Z,18.95
2018-02-18T08:32:34.555Z,19.06
2018-02-18T08:33:43.511Z,18.95
2018-02-18T08:34:53.007Z,18.94
2018-02-18T08:36:02.229Z,19.06
2018-02-18T08:37:11.727Z,19
2018-02-18T08:38:20.688Z,19.02
2018-02-18T08:39:29.908Z,19
2018-02-18T08:40:39.131Z,19.04
2018-02-18T08:41:48.898Z,19.04
2018-02-18T08:42:58.120Z,19.08
2018-02-18T08:44:07.077Z,19.04
2018-02-18T08:45:16.301Z,19.07
2018-02-18T08:46:25.796Z,19.08
2018-02-18T08:47:35.027Z,19.13
2018-02-18T08:48:43.985Z,19.11
2018-02-18T08:49:53.741Z,19.1
2018-02-18T08:51:03.238Z,19.1
2018-02-18T08:52:12.730Z,19.1
2018-02-18T08:53:22.226Z,19.13
2018-02-18T08:54:31.717Z,19.19
2018-02-18T08:55:41.216Z,19.13
2018-02-18T08:56:50.440Z,19.18
2018-02-18T08:57:59.399Z,19.11
2018-02-18T08:59:08.901Z,19.13
2018-02-18T09:00:18.127Z,19.13
2018-02-18T09:01:27.623Z,19.1
2018-02-18T09:02:36.854Z,19.13
2018-02-18T09:03:45.811Z,19.1
2018-02-18T09:04:55.305Z,19.1
2018-02-18T09:06:04.525Z,19.19
2018-02-18T09:07:13.213Z,19.14
2018-02-18T09:08:22.434Z,19.1
2018-02-18T09:09:32.200Z,19.1
2018-02-18T09:10:41.692Z,19.04
2018-02-18T09:11:50.648Z,19.06
2018-02-18T09:13:00.148Z,19.1
2018-02-18T09:14:09.635Z,19.06
2018-02-18T09:15:19.137Z,19.06
2018-02-18T09:16:28.411Z,19.04
2018-02-18T09:17:37.636Z,19.02
2018-02-18T09:18:46.322Z,19.04
2018-02-18T09:19:55.542Z,19.02
2018-02-18T09:21:05.302Z,19.02
2018-02-18T09:22:14.258Z,19.02
2018-02-18T09:23:23.756Z,19.04
2018-02-18T09:24:32.985Z,19.11
2018-02-18T09:25:42.474Z,18.99
2018-02-18T09:26:51.966Z,19.06
2018-02-18T09:28:00.924Z,19
2018-02-18T09:29:09.879Z,19.02
2018-02-18T09:30:18.836Z,18.94
2018-02-18T09:31:28.323Z,18.95
2018-02-18T09:32:38.091Z,18.94
2018-02-18T09:33:47.047Z,18.98
2018-02-18T09:34:56.805Z,18.95
2018-02-18T09:36:05.768Z,18.9
2018-02-18T09:37:15.261Z,18.95
2018-02-18T09:38:24.485Z,19.08
2018-02-18T09:39:33.714Z,18.98
2018-02-18T09:40:43.533Z,19.04
2018-02-18T09:41:53.393Z,18.91
2018-02-18T09:43:03.152Z,18.95
2018-02-18T09:44:12.123Z,19
2018-02-18T09:45:21.061Z,18.99
2018-02-18T09:46:30.011Z,18.99
2018-02-18T09:47:39.502Z,18.99
2018-02-18T09:48:48.459Z,19
2018-02-18T09:49:57.412Z,19
2018-02-18T09:51:06.635Z,19.06
2018-02-18T09:52:15.586Z,18.99
2018-02-18T09:53:25.359Z,18.98
2018-02-18T09:54:34.304Z,19.02
2018-02-18T09:55:43.535Z,19.04
2018-02-18T09:56:53.556Z,18.99
2018-02-18T09:58:03.314Z,18.99
2018-02-18T09:59:12.541Z,18.99
2018-02-18T10:00:21.512Z,19.02
2018-02-18T10:01:30.467Z,19.02
2018-02-18T10:02:39.690Z,19.06
2018-02-18T10:03:48.653Z,18.95
2018-02-18T10:04:58.143Z,19
2018-02-18T10:06:07.371Z,19
2018-02-18T10:07:16.329Z,19.13
2018-02-18T10:08:25.282Z,19
2018-02-18T10:09:34.242Z,18.98
2018-02-18T10:10:43.472Z,19.08
2018-02-18T10:11:52.434Z,19.13
2018-02-18T10:13:01.925Z,19.04
2018-02-18T10:14:10.883Z,19.1
2018-02-18T10:15:20.381Z,19.1
2018-02-18T10:16:29.611Z,19.1
2018-02-18T10:17:38.571Z,19.11
2018-02-18T10:18:48.338Z,19.08
2018-02-18T10:19:57.889Z,19.16
2018-02-18T10:21:07.171Z,19.18
2018-02-18T10:22:16.132Z,19.14
2018-02-18T10:23:24.815Z,19.21
2018-02-18T10:24:33.773Z,19.14
2018-02-18T10:25:42.459Z,19.16
2018-02-18T10:26:51.951Z,19.18
2018-02-18T10:28:01.452Z,19.13
2018-02-18T10:29:10.948Z,19.14
2018-02-18T10:30:20.175Z,19.18
2018-02-18T10:31:29.135Z,19.22
2018-02-18T10:32:38.086Z,19.22
2018-02-18T10:33:47.580Z,19.29
2018-02-18T10:34:56.542Z,19.26
2018-02-18T10:36:05.763Z,19.28
2018-02-18T10:37:14.720Z,19.32
2018-02-18T10:38:24.243Z,19.33
2018-02-18T10:39:33.467Z,19.23
2018-02-18T10:40:42.688Z,19.23
2018-02-18T10:41:51.435Z,19.36
2018-02-18T10:43:00.699Z,19.36
2018-02-18T10:44:09.917Z,19.4
2018-02-18T10:45:19.141Z,19.4
2018-02-18T10:46:27.830Z,19.46
2018-02-18T10:47:37.321Z,19.51
2018-02-18T10:48:46.544Z,19.47
2018-02-18T10:49:55.773Z,19.5
2018-02-18T10:51:05.020Z,19.47
2018-02-18T10:52:14.513Z,19.55
2018-02-18T10:53:24.003Z,19.55
2018-02-18T10:54:32.959Z,19.63
2018-02-18T10:55:41.645Z,19.56
2018-02-18T10:56:50.875Z,19.58
2018-02-18T10:58:00.639Z,19.63
2018-02-18T10:59:09.594Z,19.62
2018-02-18T11:00:18.815Z,19.59
2018-02-18T11:01:28.037Z,19.69
2018-02-18T11:02:36.992Z,19.71
2018-02-18T11:03:46.490Z,19.62
2018-02-18T11:04:55.720Z,19.73
2018-02-18T11:06:04.680Z,19.69
2018-02-18T11:07:13.637Z,19.62
2018-02-18T11:08:22.862Z,19.71
2018-02-18T11:09:31.826Z,19.65
2018-02-18T11:10:41.051Z,19.68
2018-02-18T11:11:49.744Z,19.68
2018-02-18T11:12:58.433Z,19.69
2018-02-18T11:14:07.657Z,19.71
2018-02-18T11:15:17.154Z,19.74
2018-02-18T11:16:26.111Z,19.71
2018-02-18T11:17:35.067Z,19.68
2018-02-18T11:18:44.300Z,19.74
2018-02-18T11:19:54.058Z,19.78
2018-02-18T11:21:03.007Z,19.77
2018-02-18T11:22:11.962Z,19.69
2018-02-18T11:23:21.275Z,19.81
2018-02-18T11:24:30.836Z,19.66
2018-02-18T11:25:40.326Z,19.83
2018-02-18T11:26:49.547Z,19.81
2018-02-18T11:27:58.502Z,19.81
2018-02-18T11:29:07.454Z,19.83
2018-02-18T11:30:16.408Z,19.81
2018-02-18T11:31:25.098Z,19.84
2018-02-18T11:32:34.600Z,19.86
2018-02-18T11:33:43.555Z,19.83
2018-02-18T11:34:53.331Z,19.8
2018-02-18T11:36:02.827Z,19.86
2018-02-18T11:37:12.321Z,19.87
2018-02-18T11:38:21.547Z,19.88
2018-02-18T11:39:31.042Z,19.84
2018-02-18T11:40:40.546Z,19.91
2018-02-18T11:41:50.577Z,19.78
2018-02-18T11:42:59.533Z,19.84
2018-02-18T11:44:09.024Z,19.8
2018-02-18T11:45:17.978Z,19.81
2018-02-18T11:46:26.937Z,19.86
2018-02-18T11:47:36.436Z,19.88
2018-02-18T11:48:45.942Z,19.87
2018-02-18T11:49:55.435Z,19.95
2018-02-18T11:51:04.660Z,19.86
2018-02-18T11:52:14.431Z,19.83
2018-02-18T11:53:23.673Z,19.81
2018-02-18T11:54:33.166Z,19.88
2018-02-18T11:55:42.124Z,19.95
2018-02-18T11:56:51.364Z,19.95
2018-02-18T11:58:00.320Z,19.95
2018-02-18T11:59:09.813Z,20.01
2018-02-18T12:00:19.037Z,19.87
2018-02-18T12:01:27.725Z,19.63
2018-02-18T12:02:36.951Z,19.58
2018-02-18T12:03:45.949Z,19.58
2018-02-18T12:04:54.913Z,19.73
2018-02-18T12:06:04.403Z,19.74
2018-02-18T12:07:13.628Z,19.77
2018-02-18T12:08:23.121Z,19.77
2018-02-18T12:09:32.089Z,19.71
2018-02-18T12:10:41.622Z,19.69
2018-02-18T12:11:50.584Z,19.71
2018-02-18T12:13:00.173Z,19.81
2018-02-18T12:14:09.400Z,19.86
2018-02-18T12:15:18.629Z,19.8
2018-02-18T12:16:27.853Z,19.83
2018-02-18T12:17:37.081Z,19.8
2018-02-18T12:18:46.845Z,19.86
2018-02-18T12:19:56.343Z,19.86
2018-02-18T12:21:05.302Z,19.91
2018-02-18T12:22:14.257Z,20.01
2018-02-18T12:23:24.018Z,20.05
2018-02-18T12:24:32.974Z,20.11
2018-02-18T12:25:42.201Z,20.01
2018-02-18T12:26:51.427Z,20.02
2018-02-18T12:28:00.398Z,19.95
2018-02-18T12:29:09.403Z,20.05
2018-02-18T12:30:18.359Z,20.05
2018-02-18T12:31:27.320Z,20.13
2018-02-18T12:32:36.817Z,20.06
2018-02-18T12:33:46.036Z,20.06
2018-02-18T12:34:55.263Z,20.06
2018-02-18T12:36:04.753Z,20.11
2018-02-18T12:37:13.989Z,20.14
2018-02-18T12:38:23.481Z,20.13
2018-02-18T12:39:32.169Z,20.18
2018-02-18T12:40:41.387Z,20.17
2018-02-18T12:41:50.611Z,20.14
2018-02-18T12:42:59.895Z,20.17
2018-02-18T12:44:08.801Z,20.16
2018-02-18T12:45:18.299Z,20.2
2018-02-18T12:46:27.797Z,20.17
2018-02-18T12:47:37.021Z,20.14
2018-02-18T12:48:45.979Z,20.18
2018-02-18T12:49:54.934Z,20.16
2018-02-18T12:51:03.894Z,20.21
2018-02-18T12:52:13.386Z,20.23
2018-02-18T12:53:22.611Z,20.2
2018-02-18T12:54:31.833Z,20.28
2018-02-18T12:55:40.525Z,20.28
2018-02-18T12:56:49.748Z,20.28
2018-02-18T12:57:58.978Z,20.24
2018-02-18T12:59:07.666Z,20.23
2018-02-18T13:00:16.897Z,20.23
2018-02-18T13:01:26.398Z,20.26
2018-02-18T13:02:35.388Z,20.2
2018-02-18T13:03:44.847Z,20.31
2018-02-18T13:04:54.069Z,20.21
2018-02-18T13:06:03.568Z,20.23
2018-02-18T13:07:12.792Z,20.2
2018-02-18T13:08:21.748Z,20.21
2018-02-18T13:09:30.973Z,20.26
2018-02-18T13:10:40.462Z,20.24
2018-02-18T13:11:49.149Z,20.23
2018-02-18T13:12:58.107Z,20.24
2018-02-18T13:14:07.062Z,20.18
2018-02-18T13:15:16.016Z,20.18
2018-02-18T13:16:25.508Z,20.23
2018-02-18T13:17:35.005Z,20.14
2018-02-18T13:18:43.691Z,20.2
2018-02-18T13:19:52.919Z,20.18
2018-02-18T13:21:02.481Z,20.13
2018-02-18T13:22:11.167Z,20.13
2018-02-18T13:23:20.934Z,20.17
2018-02-18T13:24:29.891Z,20.17
2018-02-18T13:25:38.579Z,20.17
2018-02-18T13:26:47.531Z,20.2
2018-02-18T13:27:57.020Z,20.18
2018-02-18T13:29:06.179Z,20.14
2018-02-18T13:30:15.134Z,20.17
2018-02-18T13:31:24.895Z,20.16
2018-02-18T13:32:34.271Z,20.16
2018-02-18T13:33:43.611Z,20.14
2018-02-18T13:34:53.109Z,20.05
2018-02-18T13:36:02.597Z,20.03
2018-02-18T13:37:11.822Z,19.87
2018-02-18T13:38:21.053Z,19.73
2018-02-18T13:39:30.009Z,19.62
2018-02-18T13:40:39.502Z,19.59
2018-02-18T13:41:48.459Z,19.55
2018-02-18T13:42:57.684Z,19.65
2018-02-18T13:44:06.376Z,19.63
2018-02-18T13:45:15.603Z,19.69
2018-02-18T13:46:24.567Z,19.69
2018-02-18T13:47:33.524Z,19.71
2018-02-18T13:48:43.015Z,19.69
2018-02-18T13:49:52.777Z,19.71
2018-02-18T13:51:01.731Z,19.73
2018-02-18T13:52:11.496Z,19.69
2018-02-18T13:53:20.725Z,19.66
2018-02-18T13:54:29.682Z,19.71
2018-02-18T13:55:39.174Z,19.81
2018-02-18T13:56:48.397Z,19.8
2018-02-18T13:57:57.084Z,19.83
2018-02-18T13:59:06.313Z,19.87
2018-02-18T14:00:15.806Z,19.95
2018-02-18T14:01:25.303Z,19.99
2018-02-18T14:02:34.262Z,20.03
2018-02-18T14:03:44.022Z,20.03
2018-02-18T14:04:53.613Z,19.91
2018-02-18T14:06:02.582Z,19.98
2018-02-18T14:07:11.813Z,19.96
2018-02-18T14:08:21.038Z,20.06
2018-02-18T14:09:30.265Z,20.02
2018-02-18T14:10:39.488Z,19.96
2018-02-18T14:11:48.990Z,20.08
2018-02-18T14:12:58.210Z,20.08
2018-02-18T14:14:06.901Z,20.08
2018-02-18T14:15:15.854Z,20.06
2018-02-18T14:16:24.816Z,19.99
2018-02-18T14:17:33.503Z,20.08
2018-02-18T14:18:42.730Z,20.01
2018-02-18T14:19:51.950Z,20.05
2018-02-18T14:21:01.451Z,20.03
2018-02-18T14:22:11.208Z,20.05
2018-02-18T14:23:20.434Z,20.06
2018-02-18T14:24:29.927Z,20.06
2018-02-18T14:25:39.421Z,20.14
2018-02-18T14:26:48.376Z,20.06
2018-02-18T14:27:57.604Z,20.06
2018-02-18T14:29:06.297Z,20.14
2018-02-18T14:30:15.530Z,19.98
2018-02-18T14:31:24.757Z,20.1
2018-02-18T14:32:33.982Z,20.13
2018-02-18T14:33:43.210Z,20.08
2018-02-18T14:34:52.709Z,20.02
2018-02-18T14:36:01.663Z,20.03
2018-02-18T14:37:10.629Z,20.14
2018-02-18T14:38:19.853Z,20.08
2018-02-18T14:39:28.539Z,20.03
2018-02-18T14:40:37.776Z,20.05
2018-02-18T14:41:46.463Z,20.03
2018-02-18T14:42:55.154Z,20.11
2018-02-18T14:44:04.925Z,20.1
2018-02-18T14:45:13.884Z,20.05
2018-02-18T14:46:23.111Z,19.96
2018-02-18T14:47:32.867Z,19.99
2018-02-18T14:48:42.087Z,20.14
2018-02-18T14:49:51.050Z,20.06
2018-02-18T14:51:00.275Z,20.01
2018-02-18T14:52:10.031Z,20.02
2018-02-18T14:53:19.810Z,19.95
2018-02-18T14:54:28.767Z,19.99
2018-02-18T14:55:38.042Z,20.03